sensor_id;sensor_type;location;lat;lon;timestamp;pressure;altitude;pressure_sealevel;temperature;humidity
75543;BME280;64129;53.508;10.476;2022-10-16T00:00:31;100484.13;;;14.17;80.50
75543;BME280;64129;53.508;10.476;2022-10-16T00:02:56;100486.25;;;14.09;80.38
75543;BME280;64129;53.508;10.476;2022-10-16T00:05:22;100489.09;;;14.04;81.12
75543;BME280;64129;53.508;10.476;2022-10-16T00:07:47;100485.69;;;14.00;81.34
75543;BME280;64129;53.508;10.476;2022-10-16T00:10:12;100488.19;;;14.05;79.41
75543;BME280;64129;53.508;10.476;2022-10-16T00:12:38;100491.09;;;13.99;80.84
75543;BME280;64129;53.508;10.476;2022-10-16T00:15:03;100493.59;;;14.03;80.52
75543;BME280;64129;53.508;10.476;2022-10-16T00:17:29;100487.03;;;14.11;78.58
75543;BME280;64129;53.508;10.476;2022-10-16T00:19:54;100495.19;;;14.08;80.21
75543;BME280;64129;53.508;10.476;2022-10-16T00:22:20;100486.09;;;13.91;80.51
75543;BME280;64129;53.508;10.476;2022-10-16T00:24:45;100503.97;;;13.89;80.95
75543;BME280;64129;53.508;10.476;2022-10-16T00:27:10;100498.50;;;13.70;81.19
75543;BME280;64129;53.508;10.476;2022-10-16T00:29:36;100498.06;;;13.81;80.90
75543;BME280;64129;53.508;10.476;2022-10-16T00:32:01;100503.41;;;13.81;80.85
75543;BME280;64129;53.508;10.476;2022-10-16T00:34:27;100499.91;;;13.79;80.32
75543;BME280;64129;53.508;10.476;2022-10-16T00:36:52;100504.53;;;13.76;80.54
75543;BME280;64129;53.508;10.476;2022-10-16T00:39:17;100510.16;;;13.68;81.38
75543;BME280;64129;53.508;10.476;2022-10-16T00:41:43;100509.00;;;13.75;80.23
75543;BME280;64129;53.508;10.476;2022-10-16T00:44:44;100507.50;;;13.68;80.86
75543;BME280;64129;53.508;10.476;2022-10-16T00:47:43;100517.94;;;13.74;79.94
75543;BME280;64129;53.508;10.476;2022-10-16T00:50:24;100503.91;;;13.69;80.30
75543;BME280;64129;53.508;10.476;2022-10-16T00:52:52;100509.13;;;13.72;78.29
75543;BME280;64129;53.508;10.476;2022-10-16T00:55:18;100511.34;;;13.61;80.69
75543;BME280;64129;53.508;10.476;2022-10-16T00:57:44;100501.03;;;13.52;80.41
75543;BME280;64129;53.508;10.476;2022-10-16T01:00:12;100505.72;;;13.45;81.06
75543;BME280;64129;53.508;10.476;2022-10-16T01:02:38;100521.81;;;13.43;81.52
75543;BME280;64129;53.508;10.476;2022-10-16T01:05:04;100520.13;;;13.41;80.75
75543;BME280;64129;53.508;10.476;2022-10-16T01:07:41;100519.50;;;13.34;81.63
75543;BME280;64129;53.508;10.476;2022-10-16T01:10:35;100516.66;;;13.39;81.27
75543;BME280;64129;53.508;10.476;2022-10-16T01:13:07;100533.66;;;13.36;81.39
75543;BME280;64129;53.508;10.476;2022-10-16T01:15:41;100522.41;;;13.28;81.53
75543;BME280;64129;53.508;10.476;2022-10-16T01:21:01;100530.41;;;13.28;81.66
75543;BME280;64129;53.508;10.476;2022-10-16T01:31:50;100539.34;;;13.27;81.37
75543;BME280;64129;53.508;10.476;2022-10-16T01:34:22;100545.19;;;13.37;79.70
75543;BME280;64129;53.508;10.476;2022-10-16T01:36:54;100536.25;;;13.13;81.88
75543;BME280;64129;53.508;10.476;2022-10-16T01:39:24;100542.94;;;13.26;80.09
75543;BME280;64129;53.508;10.476;2022-10-16T01:41:56;100545.25;;;13.10;80.93
75543;BME280;64129;53.508;10.476;2022-10-16T01:44:29;100545.00;;;13.18;80.75
75543;BME280;64129;53.508;10.476;2022-10-16T01:46:57;100546.41;;;13.28;80.32
75543;BME280;64129;53.508;10.476;2022-10-16T01:49:25;100539.66;;;13.18;80.10
75543;BME280;64129;53.508;10.476;2022-10-16T01:51:56;100545.78;;;12.97;81.76
75543;BME280;64129;53.508;10.476;2022-10-16T01:54:26;100540.16;;;13.29;78.60
75543;BME280;64129;53.508;10.476;2022-10-16T01:56:53;100547.75;;;13.15;79.46
75543;BME280;64129;53.508;10.476;2022-10-16T01:59:21;100537.66;;;13.25;79.71
75543;BME280;64129;53.508;10.476;2022-10-16T02:01:53;100538.75;;;13.19;79.51
75543;BME280;64129;53.508;10.476;2022-10-16T02:04:28;100538.88;;;13.15;79.43
75543;BME280;64129;53.508;10.476;2022-10-16T02:06:55;100548.25;;;13.01;80.16
75543;BME280;64129;53.508;10.476;2022-10-16T02:09:20;100555.41;;;13.01;79.50
75543;BME280;64129;53.508;10.476;2022-10-16T02:11:46;100550.31;;;13.18;77.92
75543;BME280;64129;53.508;10.476;2022-10-16T02:14:12;100546.81;;;13.16;79.04
75543;BME280;64129;53.508;10.476;2022-10-16T02:16:40;100550.66;;;13.09;78.74
75543;BME280;64129;53.508;10.476;2022-10-16T02:19:06;100553.06;;;13.15;78.79
75543;BME280;64129;53.508;10.476;2022-10-16T02:22:00;100545.66;;;13.00;79.26
75543;BME280;64129;53.508;10.476;2022-10-16T02:27:40;100548.56;;;12.94;79.52
75543;BME280;64129;53.508;10.476;2022-10-16T02:30:51;100553.47;;;13.04;78.15
75543;BME280;64129;53.508;10.476;2022-10-16T02:32:58;100539.84;;;12.89;79.24
75543;BME280;64129;53.508;10.476;2022-10-16T02:35:25;100546.75;;;12.94;78.16
75543;BME280;64129;53.508;10.476;2022-10-16T02:37:52;100546.94;;;12.90;78.97
75543;BME280;64129;53.508;10.476;2022-10-16T02:40:19;100545.50;;;12.79;79.36
75543;BME280;64129;53.508;10.476;2022-10-16T02:42:50;100551.75;;;12.78;79.14
75543;BME280;64129;53.508;10.476;2022-10-16T02:45:16;100546.31;;;12.81;78.56
75543;BME280;64129;53.508;10.476;2022-10-16T02:47:41;100546.53;;;12.75;79.50
75543;BME280;64129;53.508;10.476;2022-10-16T02:50:07;100541.81;;;12.84;78.46
75543;BME280;64129;53.508;10.476;2022-10-16T02:52:32;100546.53;;;12.75;78.86
75543;BME280;64129;53.508;10.476;2022-10-16T02:54:58;100561.47;;;12.79;78.30
75543;BME280;64129;53.508;10.476;2022-10-16T02:57:23;100555.19;;;12.82;77.84
75543;BME280;64129;53.508;10.476;2022-10-16T02:59:49;100546.31;;;12.81;77.94
75543;BME280;64129;53.508;10.476;2022-10-16T03:02:14;100537.63;;;12.76;77.92
75543;BME280;64129;53.508;10.476;2022-10-16T03:04:39;100541.47;;;12.68;78.28
75543;BME280;64129;53.508;10.476;2022-10-16T03:07:05;100553.00;;;12.68;78.24
75543;BME280;64129;53.508;10.476;2022-10-16T03:09:30;100558.66;;;12.59;78.66
75543;BME280;64129;53.508;10.476;2022-10-16T03:11:56;100554.84;;;12.66;77.93
75543;BME280;64129;53.508;10.476;2022-10-16T03:14:21;100555.56;;;12.71;77.33
75543;BME280;64129;53.508;10.476;2022-10-16T03:16:46;100546.88;;;12.66;78.29
75543;BME280;64129;53.508;10.476;2022-10-16T03:19:12;100550.56;;;12.62;78.63
75543;BME280;64129;53.508;10.476;2022-10-16T03:21:37;100550.34;;;12.68;78.00
75543;BME280;64129;53.508;10.476;2022-10-16T03:24:03;100550.34;;;12.68;77.80
75543;BME280;64129;53.508;10.476;2022-10-16T03:26:28;100541.97;;;12.54;78.12
75543;BME280;64129;53.508;10.476;2022-10-16T03:28:54;100548.13;;;12.56;78.49
75543;BME280;64129;53.508;10.476;2022-10-16T03:31:19;100548.19;;;12.55;78.04
75543;BME280;64129;53.508;10.476;2022-10-16T03:33:44;100548.34;;;12.50;78.32
75543;BME280;64129;53.508;10.476;2022-10-16T03:36:10;100552.53;;;12.57;78.08
75543;BME280;64129;53.508;10.476;2022-10-16T03:38:35;100545.00;;;12.43;78.57
75543;BME280;64129;53.508;10.476;2022-10-16T03:41:00;100556.84;;;12.35;78.89
75543;BME280;64129;53.508;10.476;2022-10-16T03:43:26;100545.97;;;12.41;78.17
75543;BME280;64129;53.508;10.476;2022-10-16T03:45:51;100556.22;;;12.53;78.41
75543;BME280;64129;53.508;10.476;2022-10-16T03:48:18;100560.53;;;12.57;77.61
75543;BME280;64129;53.508;10.476;2022-10-16T03:50:43;100561.84;;;12.44;77.75
75543;BME280;64129;53.508;10.476;2022-10-16T03:53:08;100561.84;;;12.44;78.01
75543;BME280;64129;53.508;10.476;2022-10-16T03:55:34;100563.47;;;12.48;76.29
75543;BME280;64129;53.508;10.476;2022-10-16T03:57:59;100569.22;;;12.36;77.31
75543;BME280;64129;53.508;10.476;2022-10-16T04:00:25;100564.78;;;12.36;77.46
75543;BME280;64129;53.508;10.476;2022-10-16T04:02:50;100568.63;;;12.28;78.90
75543;BME280;64129;53.508;10.476;2022-10-16T04:05:16;100564.13;;;12.30;78.24
75543;BME280;64129;53.508;10.476;2022-10-16T04:07:41;100566.88;;;12.27;78.39
75543;BME280;64129;53.508;10.476;2022-10-16T04:10:07;100555.63;;;12.18;78.63
75543;BME280;64129;53.508;10.476;2022-10-16T04:12:32;100559.00;;;12.24;77.99
75543;BME280;64129;53.508;10.476;2022-10-16T04:14:57;100572.09;;;12.30;78.04
75543;BME280;64129;53.508;10.476;2022-10-16T04:17:23;100585.94;;;12.14;78.99
75543;BME280;64129;53.508;10.476;2022-10-16T04:19:48;100589.47;;;12.13;79.20
75543;BME280;64129;53.508;10.476;2022-10-16T04:22:13;100589.47;;;12.13;78.18
75543;BME280;64129;53.508;10.476;2022-10-16T04:24:39;100591.31;;;12.11;79.19
75543;BME280;64129;53.508;10.476;2022-10-16T04:27:04;100599.31;;;12.11;78.87
75543;BME280;64129;53.508;10.476;2022-10-16T04:29:29;100598.41;;;12.12;78.60
75543;BME280;64129;53.508;10.476;2022-10-16T04:31:55;100606.47;;;12.09;78.73
75543;BME280;64129;53.508;10.476;2022-10-16T04:34:20;100607.31;;;12.11;78.39
75543;BME280;64129;53.508;10.476;2022-10-16T04:36:49;100598.31;;;12.15;77.80
75543;BME280;64129;53.508;10.476;2022-10-16T04:39:15;100605.97;;;11.98;79.00
75543;BME280;64129;53.508;10.476;2022-10-16T04:41:40;100607.59;;;12.02;79.33
75543;BME280;64129;53.508;10.476;2022-10-16T04:44:06;100610.97;;;12.07;78.61
75543;BME280;64129;53.508;10.476;2022-10-16T04:46:31;100617.31;;;12.03;79.46
75543;BME280;64129;53.508;10.476;2022-10-16T04:48:56;100615.50;;;12.05;78.47
75543;BME280;64129;53.508;10.476;2022-10-16T04:51:22;100621.25;;;11.92;79.42
75543;BME280;64129;53.508;10.476;2022-10-16T04:53:47;100618.16;;;12.05;77.29
75543;BME280;64129;53.508;10.476;2022-10-16T04:56:13;100627.53;;;11.89;78.79
75543;BME280;64129;53.508;10.476;2022-10-16T04:58:39;100627.59;;;11.88;79.70
75543;BME280;64129;53.508;10.476;2022-10-16T05:01:05;100633.75;;;11.90;79.77
75543;BME280;64129;53.508;10.476;2022-10-16T05:03:30;100630.84;;;11.97;77.81
75543;BME280;64129;53.508;10.476;2022-10-16T05:05:56;100638.19;;;11.89;79.06
75543;BME280;64129;53.508;10.476;2022-10-16T05:08:21;100632.88;;;11.89;79.43
75543;BME280;64129;53.508;10.476;2022-10-16T05:10:47;100626.00;;;11.82;80.38
75543;BME280;64129;53.508;10.476;2022-10-16T05:13:12;100620.75;;;11.79;80.37
75543;BME280;64129;53.508;10.476;2022-10-16T05:15:38;100636.63;;;11.82;80.09
75543;BME280;64129;53.508;10.476;2022-10-16T05:18:03;100633.06;;;11.83;80.46
75543;BME280;64129;53.508;10.476;2022-10-16T05:20:28;100641.97;;;11.82;80.08
75543;BME280;64129;53.508;10.476;2022-10-16T05:22:54;100649.13;;;11.78;80.21
75543;BME280;64129;53.508;10.476;2022-10-16T05:25:19;100643.72;;;11.83;79.26
75543;BME280;64129;53.508;10.476;2022-10-16T05:27:48;100642.03;;;11.79;80.30
75543;BME280;64129;53.508;10.476;2022-10-16T05:30:14;100648.19;;;11.81;78.77
75543;BME280;64129;53.508;10.476;2022-10-16T05:32:40;100647.41;;;11.76;80.49
75543;BME280;64129;53.508;10.476;2022-10-16T05:35:05;100643.81;;;11.80;78.56
75543;BME280;64129;53.508;10.476;2022-10-16T05:37:30;100648.22;;;11.79;80.56
75543;BME280;64129;53.508;10.476;2022-10-16T05:39:56;100648.28;;;11.76;80.16
75543;BME280;64129;53.508;10.476;2022-10-16T05:42:21;100656.59;;;11.66;81.07
75543;BME280;64129;53.508;10.476;2022-10-16T05:44:46;100661.81;;;11.69;80.69
75543;BME280;64129;53.508;10.476;2022-10-16T05:47:13;100658.97;;;11.75;80.79
75543;BME280;64129;53.508;10.476;2022-10-16T05:49:39;100658.25;;;11.70;80.85
75543;BME280;64129;53.508;10.476;2022-10-16T05:52:05;100651.00;;;11.75;80.23
75543;BME280;64129;53.508;10.476;2022-10-16T05:54:30;100652.81;;;11.73;80.18
75543;BME280;64129;53.508;10.476;2022-10-16T05:56:55;100651.19;;;11.69;81.21
75543;BME280;64129;53.508;10.476;2022-10-16T05:59:20;100652.81;;;11.73;80.25
75543;BME280;64129;53.508;10.476;2022-10-16T06:01:46;100655.44;;;11.74;80.79
75543;BME280;64129;53.508;10.476;2022-10-16T06:04:11;100666.94;;;11.75;81.19
75543;BME280;64129;53.508;10.476;2022-10-16T06:06:37;100671.44;;;11.73;78.96
75543;BME280;64129;53.508;10.476;2022-10-16T06:09:03;100663.47;;;11.73;80.82
75543;BME280;64129;53.508;10.476;2022-10-16T06:11:31;100660.91;;;11.70;80.99
75543;BME280;64129;53.508;10.476;2022-10-16T06:13:59;100670.44;;;11.77;79.94
75543;BME280;64129;53.508;10.476;2022-10-16T06:16:27;100666.41;;;11.64;81.62
75543;BME280;64129;53.508;10.476;2022-10-16T06:18:53;100674.00;;;11.76;81.11
75543;BME280;64129;53.508;10.476;2022-10-16T06:21:21;100679.34;;;11.76;77.94
75543;BME280;64129;53.508;10.476;2022-10-16T06:23:46;100675.72;;;11.80;80.29
75543;BME280;64129;53.508;10.476;2022-10-16T06:26:14;100678.56;;;11.72;81.90
75543;BME280;64129;53.508;10.476;2022-10-16T06:28:40;100685.53;;;11.76;81.04
75543;BME280;64129;53.508;10.476;2022-10-16T06:31:07;100692.59;;;11.79;80.27
75543;BME280;64129;53.508;10.476;2022-10-16T06:36:10;100688.81;;;11.88;80.50
75543;BME280;64129;53.508;10.476;2022-10-16T06:38:37;100693.34;;;11.84;79.96
75543;BME280;64129;53.508;10.476;2022-10-16T06:41:03;100691.50;;;11.86;80.87
75543;BME280;64129;53.508;10.476;2022-10-16T06:43:29;100693.16;;;11.90;78.03
75543;BME280;64129;53.508;10.476;2022-10-16T06:45:59;100697.47;;;11.94;81.66
75543;BME280;64129;53.508;10.476;2022-10-16T06:48:25;100688.63;;;11.94;80.73
75543;BME280;64129;53.508;10.476;2022-10-16T06:51:06;100701.16;;;11.90;82.02
75543;BME280;64129;53.508;10.476;2022-10-16T06:53:35;100701.09;;;11.92;81.58
75543;BME280;64129;53.508;10.476;2022-10-16T06:56:27;100710.72;;;11.96;80.09
75543;BME280;64129;53.508;10.476;2022-10-16T06:58:54;100710.72;;;11.96;81.54
75543;BME280;64129;53.508;10.476;2022-10-16T07:01:21;100710.97;;;11.88;82.49
75543;BME280;64129;53.508;10.476;2022-10-16T07:03:48;100729.50;;;11.91;81.61
75543;BME280;64129;53.508;10.476;2022-10-16T07:06:16;100720.94;;;12.09;80.56
75543;BME280;64129;53.508;10.476;2022-10-16T07:08:44;100729.84;;;12.08;79.37
75543;BME280;64129;53.508;10.476;2022-10-16T07:11:12;100728.84;;;12.12;81.48
75543;BME280;64129;53.508;10.476;2022-10-16T07:13:40;100726.19;;;12.12;81.62
75543;BME280;64129;53.508;10.476;2022-10-16T07:16:07;100733.09;;;12.20;80.54
75543;BME280;64129;53.508;10.476;2022-10-16T07:18:33;100736.38;;;12.28;82.26
75543;BME280;64129;53.508;10.476;2022-10-16T07:21:06;100727.19;;;12.38;81.14
75543;BME280;64129;53.508;10.476;2022-10-16T07:23:32;100735.81;;;12.46;79.35
75543;BME280;64129;53.508;10.476;2022-10-16T07:25:57;100742.41;;;12.62;80.99
75543;BME280;64129;53.508;10.476;2022-10-16T07:28:23;100742.31;;;12.65;81.24
75543;BME280;64129;53.508;10.476;2022-10-16T07:30:48;100749.06;;;12.75;79.56
75543;BME280;64129;53.508;10.476;2022-10-16T07:33:14;100752.56;;;12.77;80.49
75543;BME280;64129;53.508;10.476;2022-10-16T07:35:48;100753.16;;;12.87;81.30
75543;BME280;64129;53.508;10.476;2022-10-16T07:38:13;100767.09;;;12.95;81.48
75543;BME280;64129;53.508;10.476;2022-10-16T07:40:39;100765.16;;;13.00;80.51
75543;BME280;64129;53.508;10.476;2022-10-16T07:43:04;100762.56;;;13.25;80.23
75543;BME280;64129;53.508;10.476;2022-10-16T07:45:30;100766.00;;;13.29;79.61
75543;BME280;64129;53.508;10.476;2022-10-16T07:47:55;100762.94;;;13.39;80.05
75543;BME280;64129;53.508;10.476;2022-10-16T07:50:21;100776.13;;;13.44;79.79
75543;BME280;64129;53.508;10.476;2022-10-16T07:52:46;100773.28;;;13.49;79.38
75543;BME280;64129;53.508;10.476;2022-10-16T07:55:11;100774.75;;;13.59;78.93
75543;BME280;64129;53.508;10.476;2022-10-16T07:57:37;100784.03;;;13.72;78.93
75543;BME280;64129;53.508;10.476;2022-10-16T08:00:02;100781.03;;;13.81;78.50
75543;BME280;64129;53.508;10.476;2022-10-16T08:02:37;100785.00;;;13.94;77.83
75543;BME280;64129;53.508;10.476;2022-10-16T08:05:02;100788.16;;;14.05;77.68
75543;BME280;64129;53.508;10.476;2022-10-16T08:07:28;100784.56;;;14.30;77.67
75543;BME280;64129;53.508;10.476;2022-10-16T08:09:53;100786.97;;;14.13;77.23
75543;BME280;64129;53.508;10.476;2022-10-16T08:12:19;100782.47;;;14.38;76.05
75543;BME280;64129;53.508;10.476;2022-10-16T08:14:44;100790.22;;;14.46;76.55
75543;BME280;64129;53.508;10.476;2022-10-16T08:17:09;100797.44;;;14.42;77.22
75543;BME280;64129;53.508;10.476;2022-10-16T08:19:34;100796.84;;;14.59;76.15
75543;BME280;64129;53.508;10.476;2022-10-16T08:22:00;100804.13;;;14.54;76.51
75543;BME280;64129;53.508;10.476;2022-10-16T08:24:26;100806.41;;;14.64;75.95
75543;BME280;64129;53.508;10.476;2022-10-16T08:26:53;100798.09;;;14.72;75.58
75543;BME280;64129;53.508;10.476;2022-10-16T08:29:19;100803.25;;;14.77;76.08
75543;BME280;64129;53.508;10.476;2022-10-16T08:31:44;100811.88;;;14.61;76.28
75543;BME280;64129;53.508;10.476;2022-10-16T08:34:10;100804.31;;;14.73;76.20
75543;BME280;64129;53.508;10.476;2022-10-16T08:36:35;100806.69;;;15.02;75.40
75543;BME280;64129;53.508;10.476;2022-10-16T08:39:00;100809.28;;;14.82;75.64
75543;BME280;64129;53.508;10.476;2022-10-16T08:41:37;100811.69;;;14.88;75.90
75543;BME280;64129;53.508;10.476;2022-10-16T08:49:42;100814.50;;;15.28;73.82
75543;BME280;64129;53.508;10.476;2022-10-16T08:52:13;100813.22;;;15.59;73.18
75543;BME280;64129;53.508;10.476;2022-10-16T08:54:43;100812.19;;;15.63;72.49
75543;BME280;64129;53.508;10.476;2022-10-16T08:57:19;100809.34;;;15.86;72.16
75543;BME280;64129;53.508;10.476;2022-10-16T08:59:45;100806.38;;;15.93;71.55
75543;BME280;64129;53.508;10.476;2022-10-16T09:02:23;100811.38;;;16.20;70.70
75543;BME280;64129;53.508;10.476;2022-10-16T09:13:18;100819.25;;;17.00;68.71
75543;BME280;64129;53.508;10.476;2022-10-16T09:15:58;100815.06;;;16.76;69.95
75543;BME280;64129;53.508;10.476;2022-10-16T09:21:16;100824.03;;;17.12;67.74
75543;BME280;64129;53.508;10.476;2022-10-16T09:23:43;100822.00;;;17.35;66.80
75543;BME280;64129;53.508;10.476;2022-10-16T09:26:11;100820.63;;;17.26;67.19
75543;BME280;64129;53.508;10.476;2022-10-16T09:28:37;100828.97;;;17.56;66.40
75543;BME280;64129;53.508;10.476;2022-10-16T09:31:03;100833.13;;;17.81;67.61
75543;BME280;64129;53.508;10.476;2022-10-16T09:33:39;100829.22;;;17.69;66.62
75543;BME280;64129;53.508;10.476;2022-10-16T09:36:06;100838.16;;;17.87;65.78
75543;BME280;64129;53.508;10.476;2022-10-16T09:38:36;100835.78;;;17.98;66.56
75543;BME280;64129;53.508;10.476;2022-10-16T09:41:03;100839.91;;;17.88;64.17
75543;BME280;64129;53.508;10.476;2022-10-16T09:43:41;100832.63;;;18.40;65.13
75543;BME280;64129;53.508;10.476;2022-10-16T09:46:27;100847.81;;;18.74;62.53
75543;BME280;64129;53.508;10.476;2022-10-16T09:48:58;100849.47;;;18.59;62.37
75543;BME280;64129;53.508;10.476;2022-10-16T09:51:27;100852.34;;;18.56;61.86
75543;BME280;64129;53.508;10.476;2022-10-16T09:53:59;100863.53;;;18.97;60.93
75543;BME280;64129;53.508;10.476;2022-10-16T09:56:27;100863.03;;;18.58;60.85
75543;BME280;64129;53.508;10.476;2022-10-16T09:58:55;100868.38;;;19.07;60.09
75543;BME280;64129;53.508;10.476;2022-10-16T10:01:26;100857.16;;;19.30;60.28
75543;BME280;64129;53.508;10.476;2022-10-16T10:03:56;100866.56;;;19.23;58.86
75543;BME280;64129;53.508;10.476;2022-10-16T10:06:32;100861.38;;;19.20;59.37
75543;BME280;64129;53.508;10.476;2022-10-16T10:09:18;100855.22;;;19.63;59.46
75543;BME280;64129;53.508;10.476;2022-10-16T10:11:46;100868.03;;;20.04;57.78
75543;BME280;64129;53.508;10.476;2022-10-16T10:14:24;100865.63;;;19.70;57.31
75543;BME280;64129;53.508;10.476;2022-10-16T10:16:53;100865.66;;;19.38;56.50
75543;BME280;64129;53.508;10.476;2022-10-16T10:19:26;100873.25;;;19.77;55.92
75543;BME280;64129;53.508;10.476;2022-10-16T10:21:52;100875.06;;;19.62;56.18
75543;BME280;64129;53.508;10.476;2022-10-16T10:24:21;100880.06;;;19.99;56.52
75543;BME280;64129;53.508;10.476;2022-10-16T10:27:07;100899.34;;;19.77;55.01
75543;BME280;64129;53.508;10.476;2022-10-16T10:30:01;100891.06;;;20.10;54.00
75543;BME280;64129;53.508;10.476;2022-10-16T10:40:37;100887.09;;;20.45;51.41
75543;BME280;64129;53.508;10.476;2022-10-16T10:43:24;100888.75;;;20.91;53.02
75543;BME280;64129;53.508;10.476;2022-10-16T10:45:56;100906.56;;;20.79;51.10
75543;BME280;64129;53.508;10.476;2022-10-16T10:51:01;100893.56;;;21.00;50.88
75543;BME280;64129;53.508;10.476;2022-10-16T10:53:32;100900.75;;;21.13;50.62
75543;BME280;64129;53.508;10.476;2022-10-16T10:59:00;100893.25;;;21.04;50.74
75543;BME280;64129;53.508;10.476;2022-10-16T11:01:40;100917.44;;;20.35;50.50
75543;BME280;64129;53.508;10.476;2022-10-16T11:06:54;100904.59;;;20.82;50.27
75543;BME280;64129;53.508;10.476;2022-10-16T11:09:24;100921.03;;;21.21;47.67
75543;BME280;64129;53.508;10.476;2022-10-16T11:11:56;100914.53;;;21.37;46.86
75543;BME280;64129;53.508;10.476;2022-10-16T11:14:30;100905.16;;;21.43;47.18
75543;BME280;64129;53.508;10.476;2022-10-16T11:17:04;100915.66;;;21.47;47.53
75543;BME280;64129;53.508;10.476;2022-10-16T11:19:48;100912.75;;;20.95;47.32
75543;BME280;64129;53.508;10.476;2022-10-16T11:22:19;100916.22;;;22.06;46.33
75543;BME280;64129;53.508;10.476;2022-10-16T11:25:01;100923.97;;;21.98;45.70
75543;BME280;64129;53.508;10.476;2022-10-16T11:27:38;100933.03;;;22.37;44.53
75543;BME280;64129;53.508;10.476;2022-10-16T11:30:12;100936.59;;;22.25;45.75
75543;BME280;64129;53.508;10.476;2022-10-16T11:35:59;100914.78;;;22.01;44.82
75543;BME280;64129;53.508;10.476;2022-10-16T11:41:15;100920.47;;;22.36;45.74
75543;BME280;64129;53.508;10.476;2022-10-16T11:43:48;100913.47;;;21.94;44.35
75543;BME280;64129;53.508;10.476;2022-10-16T11:46:20;100926.47;;;21.74;45.40
75543;BME280;64129;53.508;10.476;2022-10-16T11:49:21;100922.00;;;21.61;45.50
75543;BME280;64129;53.508;10.476;2022-10-16T11:52:00;100925.56;;;21.34;45.71
75543;BME280;64129;53.508;10.476;2022-10-16T11:54:45;100941.66;;;21.36;45.42
75543;BME280;64129;53.508;10.476;2022-10-16T11:57:20;100934.34;;;21.65;47.41
75543;BME280;64129;53.508;10.476;2022-10-16T11:59:52;100934.81;;;21.16;47.73
75543;BME280;64129;53.508;10.476;2022-10-16T12:02:47;100951.97;;;21.97;44.45
75543;BME280;64129;53.508;10.476;2022-10-16T12:05:22;100941.81;;;22.01;44.45
75543;BME280;64129;53.508;10.476;2022-10-16T12:08:22;100954.41;;;22.15;45.77
75543;BME280;64129;53.508;10.476;2022-10-16T12:10:47;100952.19;;;22.34;43.60
75543;BME280;64129;53.508;10.476;2022-10-16T12:13:36;100967.81;;;22.03;44.79
75543;BME280;64129;53.508;10.476;2022-10-16T12:18:41;100971.59;;;22.40;42.79
75543;BME280;64129;53.508;10.476;2022-10-16T12:21:08;100967.25;;;22.38;42.91
75543;BME280;64129;53.508;10.476;2022-10-16T12:23:38;100965.72;;;22.34;43.73
75543;BME280;64129;53.508;10.476;2022-10-16T12:26:11;100967.63;;;22.97;42.31
75543;BME280;64129;53.508;10.476;2022-10-16T12:28:37;100973.34;;;23.67;41.45
75543;BME280;64129;53.508;10.476;2022-10-16T12:31:08;100978.09;;;23.14;43.05
75543;BME280;64129;53.508;10.476;2022-10-16T12:33:36;100982.00;;;22.07;46.39
75543;BME280;64129;53.508;10.476;2022-10-16T12:36:30;100974.31;;;23.53;43.01
75543;BME280;64129;53.508;10.476;2022-10-16T12:38:56;100990.34;;;23.32;40.34
75543;BME280;64129;53.508;10.476;2022-10-16T12:41:27;100988.09;;;23.26;40.85
75543;BME280;64129;53.508;10.476;2022-10-16T12:43:53;100989.59;;;22.67;41.69
75543;BME280;64129;53.508;10.476;2022-10-16T12:48:45;100983.31;;;23.17;43.57
75543;BME280;64129;53.508;10.476;2022-10-16T12:51:19;100999.03;;;21.68;43.25
75543;BME280;64129;53.508;10.476;2022-10-16T12:53:58;100996.38;;;22.47;42.16
75543;BME280;64129;53.508;10.476;2022-10-16T12:56:43;101001.22;;;21.20;43.99
75543;BME280;64129;53.508;10.476;2022-10-16T12:59:25;101009.88;;;20.82;46.00
75543;BME280;64129;53.508;10.476;2022-10-16T13:02:15;101013.53;;;20.81;45.38
75543;BME280;64129;53.508;10.476;2022-10-16T13:04:45;101016.03;;;22.76;43.20
75543;BME280;64129;53.508;10.476;2022-10-16T13:10:23;101018.25;;;22.96;41.78
75543;BME280;64129;53.508;10.476;2022-10-16T13:15:27;101024.44;;;23.73;40.29
75543;BME280;64129;53.508;10.476;2022-10-16T13:21:18;101037.47;;;23.55;41.71
75543;BME280;64129;53.508;10.476;2022-10-16T13:26:46;101052.72;;;22.94;42.95
75543;BME280;64129;53.508;10.476;2022-10-16T13:29:15;101052.91;;;23.29;41.85
75543;BME280;64129;53.508;10.476;2022-10-16T13:31:42;101054.31;;;22.18;43.22
75543;BME280;64129;53.508;10.476;2022-10-16T13:34:20;101061.47;;;21.77;45.06
75543;BME280;64129;53.508;10.476;2022-10-16T13:36:51;101068.81;;;21.75;46.96
75543;BME280;64129;53.508;10.476;2022-10-16T13:39:25;101074.00;;;22.34;44.54
75543;BME280;64129;53.508;10.476;2022-10-16T13:42:06;101060.69;;;23.47;40.66
75543;BME280;64129;53.508;10.476;2022-10-16T13:44:41;101067.31;;;23.92;40.91
75543;BME280;64129;53.508;10.476;2022-10-16T13:47:16;101080.53;;;24.09;39.15
75543;BME280;64129;53.508;10.476;2022-10-16T13:49:42;101073.41;;;23.95;39.61
75543;BME280;64129;53.508;10.476;2022-10-16T13:52:19;101084.78;;;23.26;38.24
75543;BME280;64129;53.508;10.476;2022-10-16T13:54:45;101078.00;;;23.82;39.42
75543;BME280;64129;53.508;10.476;2022-10-16T13:57:14;101080.66;;;23.71;38.10
75543;BME280;64129;53.508;10.476;2022-10-16T13:59:39;101081.84;;;23.16;38.09
75543;BME280;64129;53.508;10.476;2022-10-16T14:04:42;101088.41;;;23.88;37.59
75543;BME280;64129;53.508;10.476;2022-10-16T14:07:14;101090.28;;;24.60;38.91